SVA1455 GMMX-OERK
Flight info
| Callsign | SVA1455 |
|---|---|
| Flight time | 6h 4m |
| Altitude | 36000 |
| Route | OBOGA DCT ABDOR UH400 AGOVA UM372 FES/N0457F370 UA411 ORSUP UZ888 DIMAO UL874 OMENI DCT BEKNI/N0455F390 DCT ARLOS UN4 SALUN N705 MMA L613 KIVIL N710 TAKRI M720 FYM M872 WEJ J874 GAS G662 KUNEK |
| Aircraft | A333/H-SDE3GHIJ2J3J5M1RVWXY/LB2D1 |
Departure
| Time | 2026-05-06 18:59 |
|---|---|
| Airport | Marrakesh Menara Airport (GMMX) |
Arrival
| Time | 2026-05-07 01:03 |
|---|---|
| Airport | King Khalid International Airport (OERK) |
| Time | Latitude | Longitude | Altitude | Speed | Heading |
|---|---|---|---|---|---|
| 2026-05-06 18:30 | 31.60129 | -8.02300 | 1553 ft | 0 kts | 276° |
| 2026-05-06 18:49 | 31.60127 | -8.02279 | 1553 ft | 3 kts | 278° |
| 2026-05-06 18:49 | 31.60124 | -8.02250 | 1553 ft | 3 kts | 276° |
| 2026-05-06 18:49 | 31.60121 | -8.02227 | 1553 ft | 4 kts | 301° |
| 2026-05-06 18:50 | 31.60108 | -8.02216 | 1553 ft | 3 kts | 15° |
| 2026-05-06 18:50 | 31.60085 | -8.02225 | 1553 ft | 3 kts | 12° |
| 2026-05-06 18:50 | 31.60080 | -8.02226 | 1553 ft | 0 kts | 7° |
| 2026-05-06 18:54 | 31.60084 | -8.02225 | 1553 ft | 2 kts | 7° |
| 2026-05-06 18:54 | 31.60120 | -8.02220 | 1553 ft | 7 kts | 7° |
| 2026-05-06 18:55 | 31.60169 | -8.02214 | 1553 ft | 8 kts | 7° |
| 2026-05-06 18:55 | 31.60223 | -8.02208 | 1553 ft | 8 kts | 2° |
| 2026-05-06 18:55 | 31.60273 | -8.02203 | 1553 ft | 7 kts | 6° |
| 2026-05-06 18:55 | 31.60321 | -8.02198 | 1553 ft | 7 kts | 5° |
| 2026-05-06 18:56 | 31.60366 | -8.02185 | 1553 ft | 6 kts | 32° |
| 2026-05-06 18:56 | 31.60383 | -8.02133 | 1553 ft | 9 kts | 84° |
| 2026-05-06 18:56 | 31.60387 | -8.02064 | 1553 ft | 7 kts | 65° |
| 2026-05-06 18:56 | 31.60429 | -8.02037 | 1553 ft | 8 kts | 15° |
| 2026-05-06 18:57 | 31.60487 | -8.02029 | 1553 ft | 8 kts | 6° |
| 2026-05-06 18:57 | 31.60536 | -8.02043 | 1553 ft | 8 kts | 314° |
| 2026-05-06 18:57 | 31.60554 | -8.02101 | 1553 ft | 7 kts | 281° |
| 2026-05-06 18:57 | 31.60561 | -8.02165 | 1553 ft | 10 kts | 275° |
| 2026-05-06 18:58 | 31.60581 | -8.02401 | 1552 ft | 58 kts | 276° |
| 2026-05-06 18:58 | 31.60646 | -8.03124 | 1550 ft | 119 kts | 276° |
| 2026-05-06 18:58 | 31.60749 | -8.04318 | 1545 ft | 175 kts | 276° |
| 2026-05-06 18:58 | 31.60882 | -8.05847 | 2026 ft | 197 kts | 278° |
| 2026-05-06 18:59 | 31.61059 | -8.07501 | 2765 ft | 211 kts | 281° |
| 2026-05-06 18:59 | 31.61288 | -8.09216 | 3748 ft | 212 kts | 282° |
| 2026-05-06 18:59 | 31.61557 | -8.10880 | 4819 ft | 208 kts | 281° |
| 2026-05-06 18:59 | 31.61717 | -8.12540 | 5900 ft | 200 kts | 274° |
| 2026-05-06 19:00 | 31.61782 | -8.14130 | 6813 ft | 191 kts | 272° |
| 2026-05-06 19:00 | 31.61948 | -8.15720 | 7160 ft | 206 kts | 285° |
| 2026-05-06 19:00 | 31.62778 | -8.17165 | 7344 ft | 228 kts | 322° |
| 2026-05-06 19:00 | 31.63760 | -8.17686 | 7432 ft | 244 kts | 348° |
| 2026-05-06 19:01 | 31.66053 | -8.17090 | 7665 ft | 277 kts | 37° |
| 2026-05-06 19:01 | 31.67254 | -8.15290 | 7985 ft | 288 kts | 71° |
| 2026-05-06 19:01 | 31.67558 | -8.12967 | 8597 ft | 290 kts | 90° |
| 2026-05-06 19:01 | 31.67622 | -8.10576 | 9208 ft | 294 kts | 89° |
| 2026-05-06 19:02 | 31.67756 | -8.08165 | 9854 ft | 298 kts | 87° |
| 2026-05-06 19:02 | 31.67976 | -8.05720 | 10382 ft | 304 kts | 85° |
| 2026-05-06 19:02 | 31.68260 | -8.03266 | 10897 ft | 309 kts | 82° |
| 2026-05-06 19:02 | 31.68983 | -8.00876 | 11408 ft | 316 kts | 57° |
| 2026-05-06 19:03 | 31.70351 | -7.98826 | 11964 ft | 320 kts | 48° |
| 2026-05-06 19:03 | 31.71853 | -7.96881 | 12524 ft | 323 kts | 46° |
| 2026-05-06 19:03 | 31.73390 | -7.94919 | 13061 ft | 327 kts | 46° |
| 2026-05-06 19:03 | 31.74936 | -7.92933 | 13606 ft | 331 kts | 46° |
| 2026-05-06 19:04 | 31.76475 | -7.90943 | 14096 ft | 334 kts | 46° |
| 2026-05-06 19:04 | 31.78042 | -7.88907 | 14595 ft | 337 kts | 46° |
| 2026-05-06 19:04 | 31.79621 | -7.86848 | 15099 ft | 339 kts | 46° |
| 2026-05-06 19:04 | 31.81209 | -7.84776 | 15595 ft | 342 kts | 46° |
| 2026-05-06 19:05 | 31.82740 | -7.82614 | 16076 ft | 346 kts | 54° |
| 2026-05-06 19:05 | 31.83858 | -7.80095 | 16582 ft | 350 kts | 71° |
| 2026-05-06 19:05 | 31.84553 | -7.77340 | 17084 ft | 352 kts | 77° |
| 2026-05-06 19:05 | 31.85064 | -7.74510 | 17545 ft | 355 kts | 80° |
| 2026-05-06 19:06 | 31.85482 | -7.71636 | 18028 ft | 358 kts | 81° |
| 2026-05-06 19:06 | 31.85868 | -7.68757 | 18444 ft | 362 kts | 82° |
| 2026-05-06 19:06 | 31.86265 | -7.65825 | 18828 ft | 365 kts | 81° |
| 2026-05-06 19:06 | 31.86682 | -7.62858 | 19206 ft | 369 kts | 81° |
| 2026-05-06 19:07 | 31.87120 | -7.59862 | 19584 ft | 372 kts | 81° |
| 2026-05-06 19:07 | 31.87425 | -7.57837 | 19877 ft | 373 kts | 81° |
| 2026-05-06 19:07 | 31.88036 | -7.53843 | 20406 ft | 376 kts | 81° |
| 2026-05-06 19:07 | 31.88644 | -7.50827 | 20765 ft | 380 kts | 71° |
| 2026-05-06 19:08 | 31.89622 | -7.47924 | 21093 ft | 385 kts | 65° |
| 2026-05-06 19:08 | 31.90776 | -7.45031 | 21263 ft | 395 kts | 63° |
| 2026-05-06 19:08 | 31.92040 | -7.42117 | 21436 ft | 404 kts | 61° |
| 2026-05-06 19:08 | 31.93376 | -7.39159 | 21595 ft | 414 kts | 60° |
| 2026-05-06 19:09 | 31.94758 | -7.36140 | 21759 ft | 423 kts | 60° |
| 2026-05-06 19:09 | 31.96150 | -7.33095 | 21919 ft | 432 kts | 61° |
| 2026-05-06 19:09 | 31.97585 | -7.29934 | 22095 ft | 441 kts | 61° |
| 2026-05-06 19:09 | 31.99041 | -7.26703 | 22243 ft | 450 kts | 61° |
| 2026-05-06 19:10 | 32.00525 | -7.23391 | 22395 ft | 459 kts | 62° |
| 2026-05-06 19:10 | 32.02009 | -7.20065 | 22538 ft | 467 kts | 62° |
| 2026-05-06 19:10 | 32.03530 | -7.16647 | 22705 ft | 474 kts | 62° |
| 2026-05-06 19:10 | 32.05066 | -7.13186 | 22986 ft | 478 kts | 62° |
| 2026-05-06 19:11 | 32.06614 | -7.09698 | 23329 ft | 481 kts | 62° |
| 2026-05-06 19:11 | 32.08169 | -7.06189 | 23624 ft | 485 kts | 62° |
| 2026-05-06 19:11 | 32.09739 | -7.02644 | 23853 ft | 489 kts | 62° |
| 2026-05-06 19:11 | 32.11318 | -6.99077 | 24075 ft | 493 kts | 62° |
| 2026-05-06 19:12 | 32.12911 | -6.95472 | 24315 ft | 497 kts | 62° |
| 2026-05-06 19:12 | 32.14517 | -6.91840 | 24559 ft | 501 kts | 62° |
| 2026-05-06 19:12 | 32.16115 | -6.88219 | 24815 ft | 504 kts | 62° |
| 2026-05-06 19:12 | 32.17743 | -6.84530 | 25022 ft | 508 kts | 62° |
| 2026-05-06 19:13 | 32.19381 | -6.80812 | 25255 ft | 512 kts | 62° |
| 2026-05-06 19:13 | 32.21035 | -6.77057 | 25483 ft | 516 kts | 62° |
| 2026-05-06 19:13 | 32.22695 | -6.73283 | 25708 ft | 519 kts | 62° |
| 2026-05-06 19:13 | 32.24369 | -6.69473 | 25943 ft | 523 kts | 63° |
| 2026-05-06 19:14 | 32.26051 | -6.65642 | 26174 ft | 526 kts | 63° |
| 2026-05-06 19:14 | 32.27717 | -6.61842 | 26386 ft | 529 kts | 63° |
| 2026-05-06 19:14 | 32.29418 | -6.57959 | 26626 ft | 533 kts | 63° |
| 2026-05-06 19:14 | 32.31127 | -6.54055 | 26862 ft | 536 kts | 63° |
| 2026-05-06 19:15 | 32.32844 | -6.50124 | 27079 ft | 540 kts | 63° |
| 2026-05-06 19:15 | 32.34574 | -6.46162 | 27272 ft | 543 kts | 63° |
| 2026-05-06 19:15 | 32.36314 | -6.42172 | 27423 ft | 548 kts | 63° |
| 2026-05-06 19:15 | 32.38068 | -6.38147 | 27654 ft | 551 kts | 63° |
| 2026-05-06 19:16 | 32.39246 | -6.35472 | 27807 ft | 553 kts | 60° |
| 2026-05-06 19:16 | 32.41348 | -6.31658 | 28030 ft | 555 kts | 50° |
| 2026-05-06 19:16 | 32.44902 | -6.27333 | 28297 ft | 553 kts | 35° |
| 2026-05-06 19:16 | 32.47931 | -6.24507 | 28584 ft | 553 kts | 32° |
| 2026-05-06 19:17 | 32.49983 | -6.22714 | 28813 ft | 553 kts | 31° |
| 2026-05-06 19:17 | 32.53130 | -6.20068 | 29008 ft | 556 kts | 30° |
| 2026-05-06 19:17 | 32.56318 | -6.17446 | 29217 ft | 559 kts | 30° |
| 2026-05-06 19:17 | 32.59526 | -6.14817 | 29417 ft | 562 kts | 30° |
| 2026-05-06 19:18 | 32.62752 | -6.12161 | 29631 ft | 565 kts | 30° |
| 2026-05-06 19:18 | 32.65984 | -6.09481 | 29864 ft | 568 kts | 30° |
| 2026-05-06 19:18 | 32.69217 | -6.06781 | 30082 ft | 569 kts | 30° |
| 2026-05-06 19:18 | 32.72452 | -6.04066 | 30313 ft | 571 kts | 30° |
| 2026-05-06 19:19 | 32.75694 | -6.01338 | 30625 ft | 570 kts | 30° |
| 2026-05-06 19:19 | 32.78925 | -5.98616 | 31000 ft | 568 kts | 30° |
| 2026-05-06 19:19 | 32.82161 | -5.95892 | 31235 ft | 570 kts | 30° |
| 2026-05-06 19:19 | 32.85359 | -5.93201 | 31459 ft | 571 kts | 31° |
| 2026-05-06 19:20 | 32.88604 | -5.90469 | 31698 ft | 572 kts | 31° |
| 2026-05-06 19:20 | 32.91855 | -5.87730 | 31921 ft | 573 kts | 31° |
| 2026-05-06 19:20 | 32.95115 | -5.84981 | 32155 ft | 573 kts | 31° |
| 2026-05-06 19:20 | 32.98368 | -5.82236 | 32409 ft | 574 kts | 31° |
| 2026-05-06 19:21 | 33.01632 | -5.79478 | 32597 ft | 575 kts | 31° |
| 2026-05-06 19:21 | 33.04898 | -5.76714 | 33017 ft | 572 kts | 31° |
| 2026-05-06 19:21 | 33.08143 | -5.73964 | 33399 ft | 570 kts | 31° |
| 2026-05-06 19:21 | 33.11338 | -5.71255 | 33576 ft | 572 kts | 31° |
| 2026-05-06 19:22 | 33.14596 | -5.68494 | 33543 ft | 577 kts | 31° |
| 2026-05-06 19:22 | 33.17881 | -5.65708 | 33644 ft | 580 kts | 31° |
| 2026-05-06 19:22 | 33.21170 | -5.62913 | 33887 ft | 580 kts | 31° |
| 2026-05-06 19:22 | 33.24463 | -5.60110 | 34086 ft | 580 kts | 31° |
| 2026-05-06 19:23 | 33.27745 | -5.57314 | 34343 ft | 578 kts | 31° |
| 2026-05-06 19:23 | 33.31019 | -5.54523 | 34592 ft | 576 kts | 31° |
| 2026-05-06 19:23 | 33.34284 | -5.51736 | 34841 ft | 574 kts | 31° |
| 2026-05-06 19:23 | 33.37493 | -5.48995 | 35081 ft | 573 kts | 31° |
| 2026-05-06 19:24 | 33.40734 | -5.46226 | 35303 ft | 572 kts | 31° |
| 2026-05-06 19:24 | 33.43968 | -5.43460 | 35528 ft | 570 kts | 31° |
| 2026-05-06 19:24 | 33.47191 | -5.40699 | 35768 ft | 569 kts | 31° |
| 2026-05-06 19:24 | 33.50411 | -5.37937 | 35929 ft | 569 kts | 31° |
| 2026-05-06 19:25 | 33.53638 | -5.35167 | 35954 ft | 570 kts | 31° |
| 2026-05-06 19:25 | 33.60041 | -5.29661 | 35964 ft | 569 kts | 31° |
| 2026-05-06 19:26 | 33.66481 | -5.24110 | 35960 ft | 569 kts | 31° |
| 2026-05-06 19:26 | 33.72918 | -5.18552 | 35953 ft | 569 kts | 31° |
| 2026-05-06 19:27 | 33.79338 | -5.12999 | 35947 ft | 568 kts | 31° |
| 2026-05-06 19:27 | 33.85723 | -5.07466 | 35974 ft | 568 kts | 31° |
| 2026-05-06 19:28 | 33.91607 | -5.01088 | 35937 ft | 573 kts | 51° |
| 2026-05-06 19:28 | 33.93756 | -4.97048 | 35936 ft | 572 kts | 65° |
| 2026-05-06 19:28 | 33.95357 | -4.92656 | 35935 ft | 571 kts | 70° |
| 2026-05-06 19:29 | 33.98124 | -4.83647 | 35939 ft | 574 kts | 73° |
| 2026-05-06 19:29 | 34.00685 | -4.74579 | 35941 ft | 575 kts | 74° |
| 2026-05-06 19:30 | 34.03277 | -4.65451 | 35934 ft | 575 kts | 73° |
| 2026-05-06 19:30 | 34.05908 | -4.56339 | 35908 ft | 575 kts | 73° |
| 2026-05-06 19:31 | 34.08554 | -4.47215 | 35937 ft | 577 kts | 73° |
| 2026-05-06 19:31 | 34.12509 | -4.33538 | 35936 ft | 576 kts | 74° |
| 2026-05-06 19:32 | 34.15132 | -4.24412 | 35939 ft | 574 kts | 73° |
| 2026-05-06 19:32 | 34.17733 | -4.15307 | 35928 ft | 573 kts | 74° |
| 2026-05-06 19:33 | 34.20266 | -4.06187 | 35933 ft | 572 kts | 74° |
| 2026-05-06 19:33 | 34.22748 | -3.97121 | 35934 ft | 572 kts | 75° |
| 2026-05-06 19:34 | 34.25244 | -3.87987 | 35935 ft | 572 kts | 75° |
| 2026-05-06 19:34 | 34.27743 | -3.78840 | 35916 ft | 573 kts | 75° |
| 2026-05-06 19:35 | 34.30246 | -3.69658 | 35926 ft | 575 kts | 75° |
| 2026-05-06 19:35 | 34.32745 | -3.60459 | 35919 ft | 575 kts | 75° |
| 2026-05-06 19:36 | 34.35219 | -3.51322 | 35923 ft | 575 kts | 75° |
| 2026-05-06 19:36 | 34.37721 | -3.42131 | 35883 ft | 575 kts | 74° |
| 2026-05-06 19:37 | 34.40270 | -3.32905 | 35912 ft | 577 kts | 74° |
| 2026-05-06 19:37 | 34.42819 | -3.23675 | 35911 ft | 578 kts | 74° |
| 2026-05-06 19:38 | 34.45357 | -3.14440 | 35909 ft | 577 kts | 74° |
| 2026-05-06 19:38 | 34.47882 | -3.05203 | 35898 ft | 577 kts | 74° |
| 2026-05-06 19:39 | 34.50389 | -2.95996 | 35907 ft | 579 kts | 74° |
| 2026-05-06 19:39 | 34.52909 | -2.86714 | 35904 ft | 579 kts | 75° |
| 2026-05-06 19:40 | 34.55421 | -2.77427 | 35901 ft | 580 kts | 75° |
| 2026-05-06 19:40 | 34.57949 | -2.68128 | 35906 ft | 579 kts | 74° |
| 2026-05-06 19:41 | 34.60490 | -2.58833 | 35915 ft | 581 kts | 75° |
| 2026-05-06 19:41 | 34.62994 | -2.49509 | 35914 ft | 581 kts | 75° |
| 2026-05-06 19:42 | 34.65462 | -2.40208 | 35925 ft | 581 kts | 75° |
| 2026-05-06 19:42 | 34.67937 | -2.30851 | 35926 ft | 581 kts | 75° |
| 2026-05-06 19:43 | 34.70393 | -2.21546 | 35934 ft | 581 kts | 75° |
| 2026-05-06 19:43 | 34.72856 | -2.12189 | 35949 ft | 581 kts | 75° |
| 2026-05-06 19:44 | 34.75322 | -2.02786 | 35941 ft | 583 kts | 75° |
| 2026-05-06 19:44 | 34.78540 | -1.93829 | 35937 ft | 583 kts | 54° |
| 2026-05-06 19:45 | 34.83413 | -1.85927 | 35939 ft | 584 kts | 53° |
| 2026-05-06 19:45 | 34.87463 | -1.77338 | 35935 ft | 586 kts | 62° |
| 2026-05-06 19:46 | 34.91144 | -1.68470 | 35927 ft | 586 kts | 64° |
| 2026-05-06 19:46 | 34.94664 | -1.59566 | 35917 ft | 586 kts | 65° |
| 2026-05-06 19:47 | 34.98182 | -1.50592 | 35894 ft | 586 kts | 65° |
| 2026-05-06 19:47 | 35.01711 | -1.41616 | 35912 ft | 587 kts | 64° |
| 2026-05-06 19:48 | 35.05251 | -1.32624 | 35913 ft | 587 kts | 64° |
| 2026-05-06 19:48 | 35.08779 | -1.23646 | 35921 ft | 586 kts | 64° |
| 2026-05-06 19:49 | 35.12277 | -1.14716 | 35926 ft | 586 kts | 64° |
| 2026-05-06 19:49 | 35.15794 | -1.05712 | 35928 ft | 587 kts | 64° |
| 2026-05-06 19:50 | 35.19312 | -0.96680 | 35931 ft | 587 kts | 64° |
| 2026-05-06 19:50 | 35.22820 | -0.87644 | 35926 ft | 587 kts | 64° |
| 2026-05-06 19:51 | 35.26300 | -0.78656 | 35927 ft | 587 kts | 64° |
| 2026-05-06 19:51 | 35.29797 | -0.69599 | 35912 ft | 588 kts | 64° |
| 2026-05-06 19:52 | 35.33294 | -0.60519 | 35899 ft | 589 kts | 64° |
| 2026-05-06 19:52 | 35.36762 | -0.51489 | 35893 ft | 588 kts | 64° |
| 2026-05-06 19:53 | 35.40244 | -0.42394 | 35891 ft | 589 kts | 64° |
| 2026-05-06 19:53 | 35.43721 | -0.33284 | 35896 ft | 589 kts | 64° |
| 2026-05-06 19:54 | 35.47167 | -0.24236 | 35898 ft | 589 kts | 64° |
| 2026-05-06 19:54 | 35.50632 | -0.15106 | 35943 ft | 589 kts | 64° |
| 2026-05-06 19:55 | 35.54078 | -0.06006 | 35912 ft | 586 kts | 65° |
| 2026-05-06 19:55 | 35.57506 | 0.03077 | 35907 ft | 586 kts | 64° |
| 2026-05-06 19:56 | 35.60935 | 0.12183 | 35912 ft | 588 kts | 64° |
| 2026-05-06 19:56 | 35.64344 | 0.21265 | 35910 ft | 588 kts | 64° |
| 2026-05-06 19:57 | 35.67765 | 0.30405 | 35908 ft | 588 kts | 64° |
| 2026-05-06 19:57 | 35.71188 | 0.39578 | 35897 ft | 588 kts | 64° |
| 2026-05-06 19:58 | 35.74598 | 0.48744 | 35911 ft | 589 kts | 64° |
| 2026-05-06 19:58 | 35.77977 | 0.57853 | 35911 ft | 587 kts | 64° |
| 2026-05-06 19:59 | 35.81358 | 0.66990 | 35910 ft | 585 kts | 64° |
| 2026-05-06 19:59 | 35.84725 | 0.76116 | 35910 ft | 585 kts | 64° |
| 2026-05-06 20:00 | 35.88087 | 0.85258 | 35915 ft | 586 kts | 64° |
| 2026-05-06 20:00 | 35.91457 | 0.94445 | 35919 ft | 587 kts | 64° |
| 2026-05-06 20:01 | 35.94811 | 1.03618 | 35916 ft | 586 kts | 64° |
| 2026-05-06 20:01 | 35.98144 | 1.12759 | 35919 ft | 586 kts | 64° |
| 2026-05-06 20:02 | 36.01489 | 1.21962 | 35918 ft | 587 kts | 64° |
| 2026-05-06 20:02 | 36.04837 | 1.31195 | 35916 ft | 588 kts | 64° |
| 2026-05-06 20:03 | 36.08152 | 1.40368 | 35916 ft | 587 kts | 64° |
| 2026-05-06 20:03 | 36.11256 | 1.49720 | 35916 ft | 587 kts | 76° |
| 2026-05-06 20:04 | 36.12593 | 1.57933 | 35918 ft | 586 kts | 82° |
| 2026-05-06 20:04 | 36.14039 | 1.69549 | 35931 ft | 586 kts | 84° |
| 2026-05-06 20:05 | 36.14983 | 1.77933 | 35937 ft | 587 kts | 84° |
| 2026-05-06 20:05 | 36.16111 | 1.87884 | 35940 ft | 586 kts | 84° |
| 2026-05-06 20:06 | 36.17260 | 1.97843 | 35939 ft | 586 kts | 84° |
| 2026-05-06 20:06 | 36.18421 | 2.07836 | 35943 ft | 586 kts | 84° |
| 2026-05-06 20:07 | 36.19577 | 2.17846 | 35947 ft | 586 kts | 84° |
| 2026-05-06 20:07 | 36.20721 | 2.27844 | 35947 ft | 586 kts | 84° |
| 2026-05-06 20:08 | 36.21857 | 2.37851 | 35950 ft | 586 kts | 84° |
| 2026-05-06 20:08 | 36.22982 | 2.47851 | 35955 ft | 585 kts | 84° |
| 2026-05-06 20:09 | 36.24098 | 2.57841 | 35946 ft | 585 kts | 84° |
| 2026-05-06 20:09 | 36.25198 | 2.67778 | 35920 ft | 585 kts | 84° |
| 2026-05-06 20:10 | 36.26296 | 2.77786 | 35948 ft | 585 kts | 84° |
| 2026-05-06 20:10 | 36.27385 | 2.87796 | 35952 ft | 585 kts | 84° |
| 2026-05-06 20:11 | 36.28465 | 2.97809 | 35954 ft | 586 kts | 84° |
| 2026-05-06 20:11 | 36.29531 | 3.07757 | 35945 ft | 586 kts | 84° |
| 2026-05-06 20:12 | 36.30594 | 3.17768 | 35950 ft | 585 kts | 84° |
| 2026-05-06 20:12 | 36.31649 | 3.27787 | 35952 ft | 585 kts | 84° |
| 2026-05-06 20:13 | 36.32695 | 3.37799 | 35960 ft | 585 kts | 85° |
| 2026-05-06 20:13 | 36.33731 | 3.47815 | 35952 ft | 585 kts | 85° |
| 2026-05-06 20:14 | 36.34756 | 3.57763 | 35949 ft | 585 kts | 85° |
| 2026-05-06 20:14 | 36.35778 | 3.67785 | 35949 ft | 585 kts | 85° |
| 2026-05-06 20:15 | 36.36791 | 3.77826 | 35959 ft | 585 kts | 85° |
| 2026-05-06 20:15 | 36.37795 | 3.87848 | 35952 ft | 585 kts | 85° |
| 2026-05-06 20:16 | 36.38786 | 3.97818 | 35951 ft | 584 kts | 85° |
| 2026-05-06 20:16 | 36.39776 | 4.07866 | 35949 ft | 585 kts | 85° |
| 2026-05-06 20:17 | 36.40757 | 4.17900 | 35951 ft | 585 kts | 85° |
| 2026-05-06 20:17 | 36.41724 | 4.27891 | 35950 ft | 584 kts | 85° |
| 2026-05-06 20:18 | 36.42685 | 4.37921 | 35965 ft | 584 kts | 85° |
| 2026-05-06 20:18 | 36.43632 | 4.47886 | 35945 ft | 585 kts | 85° |
| 2026-05-06 20:19 | 36.44580 | 4.57940 | 35925 ft | 585 kts | 85° |
| 2026-05-06 20:19 | 36.45518 | 4.67974 | 35944 ft | 584 kts | 85° |
| 2026-05-06 20:20 | 36.46446 | 4.78004 | 35951 ft | 584 kts | 85° |
| 2026-05-06 20:20 | 36.47365 | 4.88043 | 35955 ft | 584 kts | 85° |
| 2026-05-06 20:21 | 36.48260 | 4.98025 | 35935 ft | 584 kts | 88° |
| 2026-05-06 20:21 | 36.48328 | 5.08054 | 35947 ft | 580 kts | 94° |
| 2026-05-06 20:22 | 36.48273 | 5.18088 | 35957 ft | 580 kts | 95° |
| 2026-05-06 20:22 | 36.48163 | 5.28118 | 35952 ft | 579 kts | 95° |
| 2026-05-06 20:23 | 36.48034 | 5.38127 | 35947 ft | 580 kts | 95° |
| 2026-05-06 20:23 | 36.47899 | 5.48171 | 35959 ft | 580 kts | 95° |
| 2026-05-06 20:24 | 36.47760 | 5.58145 | 35955 ft | 581 kts | 95° |
| 2026-05-06 20:24 | 36.47613 | 5.68189 | 35952 ft | 580 kts | 95° |
| 2026-05-06 20:25 | 36.47457 | 5.78228 | 35947 ft | 580 kts | 95° |
| 2026-05-06 20:25 | 36.47290 | 5.88260 | 35952 ft | 580 kts | 95° |
| 2026-05-06 20:26 | 36.47118 | 5.98242 | 35956 ft | 580 kts | 95° |
| 2026-05-06 20:26 | 36.46938 | 6.08260 | 35948 ft | 580 kts | 95° |
| 2026-05-06 20:27 | 36.46748 | 6.18279 | 35951 ft | 580 kts | 95° |
| 2026-05-06 20:27 | 36.46548 | 6.28302 | 35949 ft | 580 kts | 95° |
| 2026-05-06 20:28 | 36.46341 | 6.38267 | 35951 ft | 580 kts | 95° |
| 2026-05-06 20:28 | 36.46126 | 6.48288 | 35928 ft | 579 kts | 95° |
| 2026-05-06 20:29 | 36.45902 | 6.58283 | 35968 ft | 578 kts | 95° |
| 2026-05-06 20:29 | 36.45670 | 6.68293 | 35957 ft | 578 kts | 95° |
| 2026-05-06 20:30 | 36.45309 | 6.83219 | 35957 ft | 578 kts | 95° |
| 2026-05-06 20:31 | 36.45054 | 6.93220 | 35967 ft | 578 kts | 95° |
| 2026-05-06 20:31 | 36.44794 | 7.03149 | 35957 ft | 578 kts | 95° |
| 2026-05-06 20:32 | 36.44524 | 7.13133 | 35961 ft | 577 kts | 96° |
| 2026-05-06 20:32 | 36.44246 | 7.23101 | 35964 ft | 577 kts | 96° |
| 2026-05-06 20:33 | 36.43963 | 7.33019 | 35958 ft | 578 kts | 96° |
| 2026-05-06 20:33 | 36.43670 | 7.43004 | 35958 ft | 578 kts | 96° |
| 2026-05-06 20:34 | 36.43367 | 7.52983 | 35960 ft | 578 kts | 96° |
| 2026-05-06 20:34 | 36.43057 | 7.62944 | 35945 ft | 577 kts | 96° |
| 2026-05-06 20:35 | 36.42742 | 7.72855 | 35961 ft | 575 kts | 96° |
| 2026-05-06 20:35 | 36.42416 | 7.82780 | 35957 ft | 575 kts | 96° |
| 2026-05-06 20:36 | 36.42081 | 7.92703 | 35942 ft | 575 kts | 96° |
| 2026-05-06 20:36 | 36.41740 | 8.02639 | 35946 ft | 575 kts | 96° |
| 2026-05-06 20:37 | 36.41390 | 8.12546 | 35938 ft | 574 kts | 96° |
| 2026-05-06 20:37 | 36.41034 | 8.22387 | 35929 ft | 574 kts | 96° |
| 2026-05-06 20:38 | 36.40669 | 8.32299 | 35932 ft | 574 kts | 97° |
| 2026-05-06 20:38 | 36.39616 | 8.42042 | 35927 ft | 567 kts | 105° |
| 2026-05-06 20:39 | 36.38182 | 8.51619 | 35921 ft | 568 kts | 107° |
| 2026-05-06 20:39 | 36.36645 | 8.61245 | 35921 ft | 568 kts | 107° |
| 2026-05-06 20:40 | 36.35095 | 8.70856 | 35915 ft | 568 kts | 107° |
| 2026-05-06 20:40 | 36.33545 | 8.80478 | 35918 ft | 569 kts | 107° |
| 2026-05-06 20:41 | 36.31990 | 8.90124 | 35920 ft | 570 kts | 107° |
| 2026-05-06 20:41 | 36.30439 | 8.99713 | 35917 ft | 569 kts | 107° |
| 2026-05-06 20:42 | 36.28877 | 9.09309 | 35898 ft | 569 kts | 107° |
| 2026-05-06 20:42 | 36.27301 | 9.18937 | 35916 ft | 569 kts | 107° |
| 2026-05-06 20:43 | 36.25714 | 9.28579 | 35913 ft | 569 kts | 107° |
| 2026-05-06 20:43 | 36.24298 | 9.38188 | 35911 ft | 572 kts | 104° |
| 2026-05-06 20:44 | 36.23175 | 9.47970 | 35883 ft | 573 kts | 102° |
| 2026-05-06 20:44 | 36.22085 | 9.57747 | 35905 ft | 571 kts | 103° |
| 2026-05-06 20:45 | 36.20952 | 9.67484 | 35905 ft | 570 kts | 103° |
| 2026-05-06 20:45 | 36.19785 | 9.77200 | 35901 ft | 570 kts | 103° |
| 2026-05-06 20:46 | 36.18612 | 9.86849 | 35888 ft | 570 kts | 103° |
| 2026-05-06 20:46 | 36.17425 | 9.96563 | 35892 ft | 570 kts | 103° |
| 2026-05-06 20:47 | 36.16232 | 10.06271 | 35889 ft | 570 kts | 103° |
| 2026-05-06 20:47 | 36.14675 | 10.15845 | 35887 ft | 562 kts | 112° |
| 2026-05-06 20:48 | 36.12390 | 10.25018 | 35883 ft | 561 kts | 114° |
| 2026-05-06 20:48 | 36.09938 | 10.34182 | 35883 ft | 560 kts | 115° |
| 2026-05-06 20:49 | 36.07730 | 10.43468 | 35884 ft | 569 kts | 103° |
| 2026-05-06 20:49 | 36.07054 | 10.53206 | 35885 ft | 573 kts | 96° |
| 2026-05-06 20:50 | 36.06758 | 10.63079 | 35881 ft | 574 kts | 94° |
| 2026-05-06 20:50 | 36.06573 | 10.71279 | 35865 ft | 573 kts | 94° |
| 2026-05-06 20:51 | 36.06274 | 10.82720 | 35876 ft | 572 kts | 95° |
| 2026-05-06 20:51 | 36.05977 | 10.92560 | 35861 ft | 572 kts | 95° |
| 2026-05-06 20:52 | 36.05717 | 11.00731 | 35857 ft | 572 kts | 95° |
| 2026-05-06 20:52 | 36.05396 | 11.10594 | 35864 ft | 572 kts | 95° |
| 2026-05-06 20:53 | 36.05018 | 11.21985 | 35858 ft | 572 kts | 95° |
| 2026-05-06 20:53 | 36.04740 | 11.30172 | 35858 ft | 572 kts | 95° |
| 2026-05-06 20:54 | 36.04403 | 11.39997 | 35858 ft | 571 kts | 95° |
| 2026-05-06 20:54 | 36.03990 | 11.49791 | 35846 ft | 568 kts | 101° |
| 2026-05-06 20:55 | 36.02986 | 11.59481 | 35854 ft | 568 kts | 101° |
| 2026-05-06 20:55 | 36.01885 | 11.69150 | 35827 ft | 568 kts | 102° |
| 2026-05-06 20:56 | 36.00745 | 11.78810 | 35841 ft | 569 kts | 102° |
| 2026-05-06 20:56 | 35.99608 | 11.88431 | 35839 ft | 569 kts | 102° |
| 2026-05-06 20:57 | 35.98465 | 11.98109 | 35831 ft | 569 kts | 102° |
| 2026-05-06 20:57 | 35.97317 | 12.07786 | 35825 ft | 570 kts | 101° |
| 2026-05-06 20:58 | 35.96160 | 12.17473 | 35822 ft | 570 kts | 101° |
| 2026-05-06 20:58 | 35.94993 | 12.27170 | 35818 ft | 570 kts | 101° |
| 2026-05-06 20:59 | 35.93826 | 12.36799 | 35812 ft | 570 kts | 101° |
| 2026-05-06 20:59 | 35.92643 | 12.46485 | 35814 ft | 571 kts | 101° |
| 2026-05-06 21:00 | 35.91452 | 12.56178 | 35819 ft | 572 kts | 101° |
| 2026-05-06 21:00 | 35.90258 | 12.65832 | 35820 ft | 572 kts | 101° |
| 2026-05-06 21:01 | 35.89051 | 12.75525 | 35821 ft | 572 kts | 101° |
| 2026-05-06 21:01 | 35.87833 | 12.85230 | 35823 ft | 571 kts | 101° |
| 2026-05-06 21:02 | 35.86612 | 12.94907 | 35826 ft | 571 kts | 101° |
| 2026-05-06 21:02 | 35.85382 | 13.04586 | 35825 ft | 571 kts | 101° |
| 2026-05-06 21:03 | 35.84143 | 13.14268 | 35823 ft | 571 kts | 101° |
| 2026-05-06 21:03 | 35.82898 | 13.23930 | 35834 ft | 571 kts | 101° |
| 2026-05-06 21:04 | 35.81655 | 13.33525 | 35836 ft | 571 kts | 101° |
| 2026-05-06 21:04 | 35.80394 | 13.43193 | 35843 ft | 570 kts | 101° |
| 2026-05-06 21:05 | 35.79127 | 13.52844 | 35841 ft | 570 kts | 100° |
| 2026-05-06 21:05 | 35.77854 | 13.62478 | 35848 ft | 570 kts | 100° |
| 2026-05-06 21:06 | 35.76580 | 13.72058 | 35853 ft | 569 kts | 100° |
| 2026-05-06 21:06 | 35.75293 | 13.81676 | 35867 ft | 569 kts | 100° |
| 2026-05-06 21:07 | 35.73996 | 13.91306 | 35864 ft | 569 kts | 100° |
| 2026-05-06 21:07 | 35.72692 | 14.00930 | 35870 ft | 569 kts | 100° |
| 2026-05-06 21:08 | 35.71388 | 14.10499 | 35875 ft | 569 kts | 100° |
| 2026-05-06 21:08 | 35.70068 | 14.20123 | 35896 ft | 569 kts | 100° |
| 2026-05-06 21:09 | 35.68740 | 14.29741 | 35904 ft | 569 kts | 99° |
| 2026-05-06 21:09 | 35.67408 | 14.39336 | 35924 ft | 568 kts | 100° |
| 2026-05-06 21:10 | 35.66076 | 14.48873 | 35917 ft | 568 kts | 100° |
| 2026-05-06 21:10 | 35.64726 | 14.58479 | 35916 ft | 568 kts | 100° |
| 2026-05-06 21:11 | 35.63380 | 14.68000 | 35918 ft | 568 kts | 100° |
| 2026-05-06 21:11 | 35.62017 | 14.77588 | 35907 ft | 568 kts | 100° |
| 2026-05-06 21:12 | 35.60646 | 14.87173 | 35901 ft | 568 kts | 100° |
| 2026-05-06 21:12 | 35.59271 | 14.96725 | 35913 ft | 568 kts | 99° |
| 2026-05-06 21:13 | 35.57896 | 15.06220 | 35925 ft | 566 kts | 99° |
| 2026-05-06 21:13 | 35.56507 | 15.15766 | 35920 ft | 566 kts | 99° |
| 2026-05-06 21:14 | 35.55122 | 15.25234 | 35924 ft | 566 kts | 100° |
| 2026-05-06 21:14 | 35.53717 | 15.34774 | 35935 ft | 566 kts | 99° |
| 2026-05-06 21:15 | 35.52309 | 15.44281 | 35945 ft | 565 kts | 99° |
| 2026-05-06 21:15 | 35.50897 | 15.53766 | 35947 ft | 565 kts | 99° |
| 2026-05-06 21:16 | 35.49482 | 15.63218 | 35937 ft | 565 kts | 99° |
| 2026-05-06 21:16 | 35.48052 | 15.72711 | 35948 ft | 564 kts | 99° |
| 2026-05-06 21:17 | 35.46619 | 15.82174 | 35951 ft | 564 kts | 99° |
| 2026-05-06 21:17 | 35.45179 | 15.91634 | 35944 ft | 564 kts | 99° |
| 2026-05-06 21:18 | 35.43738 | 16.01054 | 35954 ft | 564 kts | 99° |
| 2026-05-06 21:18 | 35.42285 | 16.10488 | 35952 ft | 562 kts | 99° |
| 2026-05-06 21:19 | 35.40830 | 16.19891 | 35964 ft | 561 kts | 99° |
| 2026-05-06 21:19 | 35.39365 | 16.29309 | 35969 ft | 561 kts | 99° |
| 2026-05-06 21:20 | 35.37904 | 16.38650 | 35966 ft | 561 kts | 99° |
| 2026-05-06 21:20 | 35.36427 | 16.48048 | 35968 ft | 561 kts | 99° |
| 2026-05-06 21:21 | 35.34940 | 16.57453 | 35973 ft | 561 kts | 99° |
| 2026-05-06 21:21 | 35.33449 | 16.66842 | 35977 ft | 561 kts | 99° |
| 2026-05-06 21:22 | 35.31958 | 16.76170 | 35963 ft | 561 kts | 98° |
| 2026-05-06 21:22 | 35.30451 | 16.85553 | 35984 ft | 560 kts | 98° |
| 2026-05-06 21:23 | 35.28942 | 16.94911 | 35988 ft | 560 kts | 98° |
| 2026-05-06 21:23 | 35.27424 | 17.04272 | 35985 ft | 560 kts | 98° |
| 2026-05-06 21:24 | 35.25899 | 17.13626 | 36003 ft | 560 kts | 98° |
| 2026-05-06 21:24 | 35.24366 | 17.22977 | 35990 ft | 560 kts | 98° |
| 2026-05-06 21:25 | 35.22837 | 17.32262 | 35992 ft | 560 kts | 98° |
| 2026-05-06 21:25 | 35.21292 | 17.41593 | 36017 ft | 560 kts | 98° |
| 2026-05-06 21:26 | 35.20125 | 17.50950 | 36013 ft | 555 kts | 92° |
| 2026-05-06 21:26 | 35.19287 | 17.60329 | 36009 ft | 555 kts | 91° |
| 2026-05-06 21:27 | 35.18517 | 17.69715 | 36025 ft | 554 kts | 91° |
| 2026-05-06 21:27 | 35.17748 | 17.79092 | 36024 ft | 552 kts | 91° |
| 2026-05-06 21:28 | 35.16971 | 17.88350 | 36031 ft | 549 kts | 92° |
| 2026-05-06 21:28 | 35.16181 | 17.97634 | 36032 ft | 549 kts | 92° |
| 2026-05-06 21:29 | 35.15384 | 18.06908 | 36041 ft | 549 kts | 92° |
| 2026-05-06 21:29 | 35.14578 | 18.16200 | 36043 ft | 549 kts | 92° |
| 2026-05-06 21:30 | 35.13770 | 18.25430 | 36042 ft | 549 kts | 92° |
| 2026-05-06 21:30 | 35.12951 | 18.34704 | 36045 ft | 549 kts | 92° |
| 2026-05-06 21:31 | 35.12124 | 18.43989 | 36057 ft | 549 kts | 92° |
| 2026-05-06 21:31 | 35.11291 | 18.53239 | 36051 ft | 546 kts | 92° |
| 2026-05-06 21:32 | 35.10460 | 18.62404 | 36054 ft | 545 kts | 92° |
| 2026-05-06 21:32 | 35.09193 | 18.76248 | 36061 ft | 546 kts | 92° |
| 2026-05-06 21:33 | 35.08341 | 18.85453 | 36064 ft | 543 kts | 92° |
| 2026-05-06 21:33 | 35.07491 | 18.94544 | 36065 ft | 542 kts | 92° |
| 2026-05-06 21:34 | 35.06631 | 19.03692 | 36069 ft | 542 kts | 92° |
| 2026-05-06 21:34 | 35.05764 | 19.12836 | 36095 ft | 542 kts | 93° |
| 2026-05-06 21:35 | 35.04897 | 19.21891 | 36071 ft | 537 kts | 93° |
| 2026-05-06 21:35 | 35.04024 | 19.30940 | 36074 ft | 536 kts | 93° |
| 2026-05-06 21:36 | 35.03147 | 19.39965 | 36080 ft | 536 kts | 93° |
| 2026-05-06 21:36 | 35.02262 | 19.49009 | 36087 ft | 535 kts | 93° |
| 2026-05-06 21:37 | 35.01375 | 19.57988 | 36087 ft | 530 kts | 94° |
| 2026-05-06 21:37 | 35.00492 | 19.66865 | 36091 ft | 530 kts | 94° |
| 2026-05-06 21:38 | 34.99599 | 19.75782 | 36090 ft | 530 kts | 94° |
| 2026-05-06 21:38 | 34.98698 | 19.84708 | 36095 ft | 529 kts | 94° |
| 2026-05-06 21:39 | 34.97794 | 19.93589 | 36095 ft | 526 kts | 94° |
| 2026-05-06 21:39 | 34.96893 | 20.02391 | 36104 ft | 526 kts | 94° |
| 2026-05-06 21:40 | 34.95978 | 20.11259 | 36103 ft | 526 kts | 94° |
| 2026-05-06 21:40 | 34.95214 | 20.18616 | 36106 ft | 525 kts | 94° |
| 2026-05-06 21:41 | 34.94290 | 20.27443 | 36106 ft | 524 kts | 94° |
| 2026-05-06 21:41 | 34.93362 | 20.36256 | 36094 ft | 524 kts | 94° |
| 2026-05-06 21:42 | 34.92432 | 20.45023 | 36109 ft | 524 kts | 94° |
| 2026-05-06 21:42 | 34.91491 | 20.53829 | 36102 ft | 523 kts | 94° |
| 2026-05-06 21:43 | 34.90546 | 20.62611 | 36106 ft | 521 kts | 94° |
| 2026-05-06 21:43 | 34.89599 | 20.71364 | 36105 ft | 522 kts | 94° |
| 2026-05-06 21:44 | 34.88642 | 20.80134 | 36109 ft | 522 kts | 94° |
| 2026-05-06 21:44 | 34.87688 | 20.88823 | 36106 ft | 519 kts | 94° |
| 2026-05-06 21:45 | 34.86725 | 20.97528 | 36107 ft | 518 kts | 94° |
| 2026-05-06 21:45 | 34.85756 | 21.06236 | 36110 ft | 518 kts | 94° |
| 2026-05-06 21:46 | 34.84782 | 21.14943 | 36124 ft | 518 kts | 94° |
| 2026-05-06 21:46 | 34.83805 | 21.23601 | 36118 ft | 514 kts | 94° |
| 2026-05-06 21:47 | 34.82834 | 21.32143 | 36116 ft | 512 kts | 94° |
| 2026-05-06 21:47 | 34.81855 | 21.40722 | 36116 ft | 512 kts | 94° |
| 2026-05-06 21:48 | 34.80870 | 21.49301 | 36116 ft | 512 kts | 94° |
| 2026-05-06 21:48 | 34.79876 | 21.57899 | 36116 ft | 512 kts | 94° |
| 2026-05-06 21:49 | 34.78885 | 21.66414 | 36116 ft | 512 kts | 94° |
| 2026-05-06 21:49 | 34.77879 | 21.75002 | 36116 ft | 512 kts | 95° |
| 2026-05-06 21:50 | 34.76870 | 21.83573 | 36117 ft | 511 kts | 95° |
| 2026-05-06 21:50 | 34.75858 | 21.92092 | 36115 ft | 507 kts | 95° |
| 2026-05-06 21:51 | 34.74845 | 22.00584 | 36119 ft | 507 kts | 95° |
| 2026-05-06 21:51 | 34.73827 | 22.09075 | 36121 ft | 507 kts | 95° |
| 2026-05-06 21:52 | 34.72802 | 22.17562 | 36120 ft | 506 kts | 96° |
| 2026-05-06 21:52 | 34.71778 | 22.25986 | 36120 ft | 502 kts | 96° |
| 2026-05-06 21:53 | 34.70758 | 22.34340 | 36122 ft | 502 kts | 96° |
| 2026-05-06 21:53 | 34.69726 | 22.42741 | 36123 ft | 502 kts | 96° |
| 2026-05-06 21:54 | 34.68688 | 22.51137 | 36120 ft | 501 kts | 96° |
| 2026-05-06 21:54 | 34.67646 | 22.59516 | 36128 ft | 500 kts | 96° |
| 2026-05-06 21:55 | 34.66608 | 22.67815 | 36119 ft | 500 kts | 97° |
| 2026-05-06 21:55 | 34.65559 | 22.76164 | 36125 ft | 500 kts | 97° |
| 2026-05-06 21:56 | 34.64504 | 22.84504 | 36126 ft | 498 kts | 97° |
| 2026-05-06 21:56 | 34.63453 | 22.92768 | 36128 ft | 497 kts | 97° |
| 2026-05-06 21:57 | 34.61882 | 23.00948 | 36127 ft | 499 kts | 111° |
| 2026-05-06 21:57 | 34.58967 | 23.08608 | 36126 ft | 500 kts | 116° |
| 2026-05-06 21:58 | 34.55785 | 23.16111 | 36127 ft | 499 kts | 117° |
| 2026-05-06 21:58 | 34.52584 | 23.23526 | 36127 ft | 498 kts | 117° |
| 2026-05-06 21:59 | 34.49388 | 23.30977 | 36127 ft | 498 kts | 117° |
| 2026-05-06 21:59 | 34.46203 | 23.38433 | 36126 ft | 498 kts | 117° |
| 2026-05-06 22:00 | 34.43015 | 23.45897 | 36132 ft | 498 kts | 117° |
| 2026-05-06 22:00 | 34.39851 | 23.53288 | 36127 ft | 497 kts | 117° |
| 2026-05-06 22:01 | 34.36655 | 23.60732 | 36127 ft | 497 kts | 117° |
| 2026-05-06 22:01 | 34.33470 | 23.68137 | 36124 ft | 497 kts | 117° |
| 2026-05-06 22:02 | 34.30265 | 23.75572 | 36130 ft | 497 kts | 117° |
| 2026-05-06 22:02 | 34.27061 | 23.82986 | 36124 ft | 496 kts | 117° |
| 2026-05-06 22:03 | 34.23881 | 23.90330 | 36123 ft | 496 kts | 117° |
| 2026-05-06 22:03 | 34.20673 | 23.97722 | 36124 ft | 496 kts | 117° |
| 2026-05-06 22:04 | 34.17463 | 24.05104 | 36124 ft | 496 kts | 117° |
| 2026-05-06 22:04 | 34.14253 | 24.12472 | 36125 ft | 495 kts | 117° |
| 2026-05-06 22:05 | 34.11040 | 24.19828 | 36123 ft | 494 kts | 117° |
| 2026-05-06 22:05 | 34.07850 | 24.27117 | 36125 ft | 494 kts | 117° |
| 2026-05-06 22:06 | 34.04630 | 24.34460 | 36123 ft | 494 kts | 117° |
| 2026-05-06 22:06 | 34.01394 | 24.41732 | 36124 ft | 494 kts | 122° |
| 2026-05-06 22:07 | 33.97063 | 24.48092 | 36125 ft | 490 kts | 136° |
| 2026-05-06 22:07 | 33.92053 | 24.53700 | 36124 ft | 491 kts | 139° |
| 2026-05-06 22:08 | 33.86943 | 24.59129 | 36124 ft | 492 kts | 140° |
| 2026-05-06 22:08 | 33.81808 | 24.64574 | 36124 ft | 492 kts | 139° |
| 2026-05-06 22:09 | 33.76679 | 24.70046 | 36127 ft | 492 kts | 139° |
| 2026-05-06 22:09 | 33.71554 | 24.75527 | 36126 ft | 492 kts | 139° |
| 2026-05-06 22:10 | 33.66466 | 24.80964 | 36124 ft | 492 kts | 139° |
| 2026-05-06 22:10 | 33.61336 | 24.86434 | 36118 ft | 493 kts | 139° |
| 2026-05-06 22:11 | 33.56204 | 24.91896 | 36124 ft | 493 kts | 139° |
| 2026-05-06 22:11 | 33.51064 | 24.97358 | 36117 ft | 493 kts | 139° |
| 2026-05-06 22:12 | 33.45955 | 25.02777 | 36122 ft | 493 kts | 140° |
| 2026-05-06 22:12 | 33.40818 | 25.08217 | 36127 ft | 492 kts | 140° |
| 2026-05-06 22:13 | 33.35686 | 25.13644 | 36128 ft | 492 kts | 140° |
| 2026-05-06 22:13 | 33.30580 | 25.19034 | 36126 ft | 492 kts | 140° |
| 2026-05-06 22:14 | 33.25437 | 25.24454 | 36125 ft | 492 kts | 140° |
| 2026-05-06 22:14 | 33.20295 | 25.29863 | 36125 ft | 492 kts | 140° |
| 2026-05-06 22:15 | 33.15152 | 25.35266 | 36129 ft | 492 kts | 140° |
| 2026-05-06 22:15 | 33.10025 | 25.40643 | 36125 ft | 490 kts | 140° |
| 2026-05-06 22:16 | 33.04899 | 25.46010 | 36126 ft | 490 kts | 140° |
| 2026-05-06 22:16 | 32.99800 | 25.51340 | 36126 ft | 491 kts | 140° |
| 2026-05-06 22:17 | 32.94659 | 25.56705 | 36129 ft | 491 kts | 140° |
| 2026-05-06 22:17 | 32.89512 | 25.62068 | 36129 ft | 491 kts | 140° |
| 2026-05-06 22:18 | 32.84362 | 25.67427 | 36125 ft | 491 kts | 140° |
| 2026-05-06 22:18 | 32.79225 | 25.72762 | 36127 ft | 490 kts | 140° |
| 2026-05-06 22:19 | 32.74086 | 25.78091 | 36127 ft | 490 kts | 140° |
| 2026-05-06 22:19 | 32.68979 | 25.83379 | 36123 ft | 490 kts | 140° |
| 2026-05-06 22:20 | 32.63827 | 25.88704 | 36127 ft | 491 kts | 140° |
| 2026-05-06 22:20 | 32.58667 | 25.94029 | 36127 ft | 491 kts | 140° |
| 2026-05-06 22:21 | 32.53514 | 25.99340 | 36127 ft | 490 kts | 140° |
| 2026-05-06 22:21 | 32.48395 | 26.04606 | 36127 ft | 490 kts | 140° |
| 2026-05-06 22:22 | 32.43231 | 26.09911 | 36124 ft | 490 kts | 140° |
| 2026-05-06 22:22 | 32.38061 | 26.15212 | 36118 ft | 490 kts | 140° |
| 2026-05-06 22:23 | 32.32902 | 26.20495 | 36124 ft | 491 kts | 140° |
| 2026-05-06 22:23 | 32.27767 | 26.25745 | 36124 ft | 491 kts | 140° |
| 2026-05-06 22:24 | 32.22597 | 26.31023 | 36124 ft | 491 kts | 140° |
| 2026-05-06 22:24 | 32.17428 | 26.36291 | 36124 ft | 491 kts | 140° |
| 2026-05-06 22:25 | 32.12257 | 26.41553 | 36124 ft | 491 kts | 140° |
| 2026-05-06 22:25 | 32.07083 | 26.46810 | 36116 ft | 491 kts | 140° |
| 2026-05-06 22:26 | 32.01901 | 26.52067 | 36124 ft | 491 kts | 140° |
| 2026-05-06 22:26 | 31.96736 | 26.57298 | 36123 ft | 491 kts | 140° |
| 2026-05-06 22:27 | 31.91553 | 26.62540 | 36124 ft | 491 kts | 141° |
| 2026-05-06 22:27 | 31.86363 | 26.67781 | 36127 ft | 491 kts | 141° |
| 2026-05-06 22:28 | 31.82051 | 26.72129 | 36127 ft | 491 kts | 141° |
| 2026-05-06 22:28 | 31.76850 | 26.77366 | 36127 ft | 491 kts | 141° |
| 2026-05-06 22:29 | 31.71687 | 26.82557 | 36132 ft | 491 kts | 141° |
| 2026-05-06 22:29 | 31.66483 | 26.87780 | 36134 ft | 492 kts | 141° |
| 2026-05-06 22:30 | 31.61282 | 26.92992 | 36138 ft | 491 kts | 141° |
| 2026-05-06 22:30 | 31.56085 | 26.98194 | 36137 ft | 491 kts | 141° |
| 2026-05-06 22:31 | 31.50881 | 27.03394 | 36135 ft | 491 kts | 141° |
| 2026-05-06 22:31 | 31.45670 | 27.08593 | 36140 ft | 491 kts | 141° |
| 2026-05-06 22:32 | 31.40464 | 27.13780 | 36131 ft | 491 kts | 141° |
| 2026-05-06 22:32 | 31.35293 | 27.18924 | 36171 ft | 491 kts | 141° |
| 2026-05-06 22:33 | 31.30052 | 27.24061 | 36171 ft | 490 kts | 143° |
| 2026-05-06 22:33 | 31.24703 | 27.29023 | 36152 ft | 490 kts | 143° |
| 2026-05-06 22:34 | 31.19335 | 27.33932 | 36148 ft | 490 kts | 143° |
| 2026-05-06 22:34 | 31.14005 | 27.38820 | 36144 ft | 490 kts | 143° |
| 2026-05-06 22:35 | 31.08650 | 27.43745 | 36140 ft | 490 kts | 143° |
| 2026-05-06 22:35 | 31.03294 | 27.48669 | 36142 ft | 489 kts | 143° |
| 2026-05-06 22:36 | 30.97985 | 27.53544 | 36145 ft | 488 kts | 143° |
| 2026-05-06 22:36 | 30.92645 | 27.58439 | 36141 ft | 488 kts | 143° |
| 2026-05-06 22:37 | 30.87300 | 27.63331 | 36135 ft | 488 kts | 143° |
| 2026-05-06 22:37 | 30.81939 | 27.68231 | 36141 ft | 488 kts | 143° |
| 2026-05-06 22:38 | 30.76594 | 27.73108 | 36139 ft | 488 kts | 143° |
| 2026-05-06 22:38 | 30.71251 | 27.77977 | 36137 ft | 488 kts | 143° |
| 2026-05-06 22:39 | 30.65932 | 27.82817 | 36140 ft | 488 kts | 143° |
| 2026-05-06 22:39 | 30.60579 | 27.87680 | 36130 ft | 488 kts | 143° |
| 2026-05-06 22:40 | 30.55225 | 27.92539 | 36135 ft | 488 kts | 143° |
| 2026-05-06 22:40 | 30.49904 | 27.97359 | 36133 ft | 488 kts | 144° |
| 2026-05-06 22:41 | 30.41833 | 28.04657 | 36135 ft | 493 kts | 143° |
| 2026-05-06 22:42 | 30.36434 | 28.09532 | 36131 ft | 493 kts | 143° |
| 2026-05-06 22:42 | 30.31024 | 28.14410 | 36133 ft | 492 kts | 143° |
| 2026-05-06 22:43 | 30.25641 | 28.19256 | 36124 ft | 492 kts | 143° |
| 2026-05-06 22:43 | 30.20228 | 28.24121 | 36115 ft | 493 kts | 144° |
| 2026-05-06 22:44 | 30.14814 | 28.28981 | 36120 ft | 493 kts | 144° |
| 2026-05-06 22:44 | 30.09393 | 28.33839 | 36115 ft | 493 kts | 144° |
| 2026-05-06 22:45 | 30.04000 | 28.38666 | 36116 ft | 492 kts | 144° |
| 2026-05-06 22:45 | 29.98584 | 28.43507 | 36121 ft | 491 kts | 144° |
| 2026-05-06 22:46 | 29.93182 | 28.48329 | 36120 ft | 491 kts | 144° |
| 2026-05-06 22:46 | 29.87779 | 28.53144 | 36116 ft | 491 kts | 144° |
| 2026-05-06 22:47 | 29.82402 | 28.57929 | 36108 ft | 491 kts | 144° |
| 2026-05-06 22:47 | 29.76978 | 28.62749 | 36102 ft | 492 kts | 144° |
| 2026-05-06 22:48 | 29.71540 | 28.67576 | 36106 ft | 492 kts | 144° |
| 2026-05-06 22:48 | 29.66174 | 28.72397 | 36108 ft | 492 kts | 140° |
| 2026-05-06 22:49 | 29.61560 | 28.78204 | 36105 ft | 493 kts | 130° |
| 2026-05-06 22:49 | 29.57306 | 28.84408 | 36109 ft | 494 kts | 128° |
| 2026-05-06 22:50 | 29.53125 | 28.90676 | 36106 ft | 494 kts | 128° |
| 2026-05-06 22:50 | 29.48957 | 28.96895 | 36093 ft | 494 kts | 129° |
| 2026-05-06 22:51 | 29.44846 | 29.03229 | 36104 ft | 495 kts | 122° |
| 2026-05-06 22:51 | 29.42180 | 29.10488 | 36099 ft | 495 kts | 102° |
| 2026-05-06 22:52 | 29.41525 | 29.18279 | 36106 ft | 494 kts | 91° |
| 2026-05-06 22:52 | 29.41434 | 29.26183 | 36102 ft | 495 kts | 89° |
| 2026-05-06 22:53 | 29.41415 | 29.34096 | 36112 ft | 495 kts | 90° |
| 2026-05-06 22:53 | 29.41353 | 29.41940 | 36107 ft | 493 kts | 90° |
| 2026-05-06 22:54 | 29.41256 | 29.49816 | 36104 ft | 493 kts | 90° |
| 2026-05-06 22:54 | 29.41146 | 29.57681 | 36105 ft | 493 kts | 90° |
| 2026-05-06 22:55 | 29.41031 | 29.65552 | 36107 ft | 494 kts | 90° |
| 2026-05-06 22:55 | 29.40914 | 29.73393 | 36104 ft | 494 kts | 90° |
| 2026-05-06 22:56 | 29.40791 | 29.81275 | 36105 ft | 494 kts | 90° |
| 2026-05-06 22:56 | 29.40665 | 29.89171 | 36106 ft | 494 kts | 91° |
| 2026-05-06 22:57 | 29.40534 | 29.97054 | 36110 ft | 494 kts | 91° |
| 2026-05-06 22:57 | 29.40398 | 30.04948 | 36098 ft | 494 kts | 91° |
| 2026-05-06 22:58 | 29.40258 | 30.12784 | 36090 ft | 494 kts | 91° |
| 2026-05-06 22:58 | 29.40113 | 30.20697 | 36099 ft | 496 kts | 91° |
| 2026-05-06 22:59 | 29.39963 | 30.28580 | 36100 ft | 496 kts | 91° |
| 2026-05-06 22:59 | 29.39121 | 30.36412 | 36103 ft | 494 kts | 107° |
| 2026-05-06 22:59 | 29.37896 | 30.40084 | 36098 ft | 491 kts | 118° |
| 2026-05-06 23:00 | 29.36116 | 30.43402 | 36100 ft | 488 kts | 130° |
| 2026-05-06 23:00 | 29.31639 | 30.49223 | 36101 ft | 487 kts | 136° |
| 2026-05-06 23:01 | 29.26910 | 30.54777 | 36097 ft | 487 kts | 137° |
| 2026-05-06 23:01 | 29.22165 | 30.60311 | 36096 ft | 487 kts | 137° |
| 2026-05-06 23:02 | 29.17469 | 30.65849 | 36095 ft | 487 kts | 136° |
| 2026-05-06 23:02 | 29.12755 | 30.71441 | 36093 ft | 487 kts | 136° |
| 2026-05-06 23:03 | 29.08053 | 30.77021 | 36093 ft | 487 kts | 136° |
| 2026-05-06 23:03 | 29.03382 | 30.82554 | 36082 ft | 487 kts | 136° |
| 2026-05-06 23:04 | 28.98665 | 30.88132 | 36092 ft | 488 kts | 137° |
| 2026-05-06 23:04 | 28.93940 | 30.93710 | 36090 ft | 488 kts | 137° |
| 2026-05-06 23:05 | 28.89208 | 30.99290 | 36085 ft | 488 kts | 137° |
| 2026-05-06 23:05 | 28.84483 | 31.04852 | 36087 ft | 488 kts | 137° |
| 2026-05-06 23:06 | 28.79782 | 31.10378 | 36086 ft | 488 kts | 137° |
| 2026-05-06 23:06 | 28.75052 | 31.15932 | 36086 ft | 488 kts | 137° |
| 2026-05-06 23:07 | 28.70318 | 31.21486 | 36083 ft | 488 kts | 137° |
| 2026-05-06 23:07 | 28.65729 | 31.27137 | 36077 ft | 489 kts | 136° |
| 2026-05-06 23:08 | 28.61172 | 31.32924 | 36076 ft | 490 kts | 135° |
| 2026-05-06 23:08 | 28.56609 | 31.38711 | 36076 ft | 490 kts | 136° |
| 2026-05-06 23:09 | 28.52042 | 31.44463 | 36072 ft | 490 kts | 136° |
| 2026-05-06 23:09 | 28.47495 | 31.50168 | 36074 ft | 490 kts | 136° |
| 2026-05-06 23:10 | 28.42906 | 31.55915 | 36065 ft | 489 kts | 136° |
| 2026-05-06 23:10 | 28.38325 | 31.61643 | 36067 ft | 489 kts | 136° |
| 2026-05-06 23:11 | 28.33748 | 31.67361 | 36082 ft | 489 kts | 136° |
| 2026-05-06 23:11 | 28.29161 | 31.73083 | 36069 ft | 489 kts | 137° |
| 2026-05-06 23:12 | 28.24598 | 31.78766 | 36074 ft | 490 kts | 137° |
| 2026-05-06 23:12 | 28.20005 | 31.84482 | 36073 ft | 490 kts | 137° |
| 2026-05-06 23:13 | 28.15415 | 31.90184 | 36076 ft | 489 kts | 138° |
| 2026-05-06 23:13 | 28.10825 | 31.95879 | 36074 ft | 489 kts | 138° |
| 2026-05-06 23:14 | 28.06227 | 32.01575 | 36073 ft | 489 kts | 138° |
| 2026-05-06 23:14 | 28.02138 | 32.07791 | 36064 ft | 497 kts | 126° |
| 2026-05-06 23:15 | 27.98728 | 32.14562 | 36075 ft | 499 kts | 124° |
| 2026-05-06 23:15 | 27.95424 | 32.21480 | 36072 ft | 500 kts | 123° |
| 2026-05-06 23:16 | 27.92123 | 32.28404 | 36071 ft | 500 kts | 123° |
| 2026-05-06 23:16 | 27.89358 | 32.34154 | 36055 ft | 500 kts | 124° |
| 2026-05-06 23:17 | 27.86011 | 32.41072 | 36060 ft | 501 kts | 124° |
| 2026-05-06 23:17 | 27.82661 | 32.47978 | 36060 ft | 501 kts | 124° |
| 2026-05-06 23:18 | 27.79297 | 32.54903 | 36056 ft | 501 kts | 124° |
| 2026-05-06 23:18 | 27.75960 | 32.61764 | 36055 ft | 501 kts | 124° |
| 2026-05-06 23:19 | 27.72591 | 32.68679 | 36047 ft | 501 kts | 124° |
| 2026-05-06 23:19 | 27.69249 | 32.75528 | 36036 ft | 500 kts | 124° |
| 2026-05-06 23:20 | 27.65881 | 32.82417 | 36036 ft | 500 kts | 124° |
| 2026-05-06 23:20 | 27.62511 | 32.89301 | 36011 ft | 500 kts | 124° |
| 2026-05-06 23:21 | 27.59161 | 32.96132 | 36025 ft | 501 kts | 124° |
| 2026-05-06 23:21 | 27.55782 | 33.03010 | 36022 ft | 500 kts | 124° |
| 2026-05-06 23:22 | 27.52406 | 33.09873 | 36016 ft | 500 kts | 125° |
| 2026-05-06 23:22 | 27.49048 | 33.16688 | 36004 ft | 500 kts | 125° |
| 2026-05-06 23:23 | 27.45666 | 33.23540 | 36015 ft | 500 kts | 125° |
| 2026-05-06 23:23 | 27.42277 | 33.30394 | 36002 ft | 500 kts | 125° |
| 2026-05-06 23:24 | 27.38885 | 33.37245 | 35996 ft | 500 kts | 125° |
| 2026-05-06 23:24 | 27.35515 | 33.44041 | 35965 ft | 500 kts | 125° |
| 2026-05-06 23:25 | 27.32120 | 33.50873 | 35990 ft | 501 kts | 125° |
| 2026-05-06 23:25 | 27.28711 | 33.57723 | 35991 ft | 501 kts | 125° |
| 2026-05-06 23:26 | 27.25324 | 33.64520 | 35991 ft | 501 kts | 125° |
| 2026-05-06 23:26 | 27.21916 | 33.71347 | 35981 ft | 500 kts | 126° |
| 2026-05-06 23:27 | 27.18521 | 33.78178 | 35966 ft | 501 kts | 123° |
| 2026-05-06 23:27 | 27.15705 | 33.85405 | 35965 ft | 505 kts | 118° |
| 2026-05-06 23:28 | 27.13094 | 33.92693 | 35967 ft | 506 kts | 117° |
| 2026-05-06 23:28 | 27.10496 | 34.00061 | 35964 ft | 507 kts | 117° |
| 2026-05-06 23:29 | 27.07888 | 34.07418 | 35962 ft | 507 kts | 118° |
| 2026-05-06 23:29 | 27.05270 | 34.14758 | 35951 ft | 507 kts | 118° |
| 2026-05-06 23:30 | 27.02659 | 34.22049 | 35933 ft | 507 kts | 118° |
| 2026-05-06 23:30 | 27.00019 | 34.29404 | 35947 ft | 508 kts | 118° |
| 2026-05-06 23:31 | 26.97373 | 34.36761 | 35943 ft | 508 kts | 118° |
| 2026-05-06 23:31 | 26.94739 | 34.44077 | 35932 ft | 508 kts | 118° |
| 2026-05-06 23:32 | 26.92088 | 34.51423 | 35934 ft | 508 kts | 118° |
| 2026-05-06 23:32 | 26.89429 | 34.58775 | 35930 ft | 509 kts | 118° |
| 2026-05-06 23:33 | 26.86761 | 34.66141 | 35927 ft | 509 kts | 118° |
| 2026-05-06 23:33 | 26.84113 | 34.73435 | 35925 ft | 509 kts | 118° |
| 2026-05-06 23:34 | 26.81441 | 34.80786 | 35920 ft | 509 kts | 118° |
| 2026-05-06 23:34 | 26.78762 | 34.88140 | 35914 ft | 509 kts | 118° |
| 2026-05-06 23:35 | 26.76077 | 34.95496 | 35911 ft | 509 kts | 118° |
| 2026-05-06 23:35 | 26.73414 | 35.02785 | 35908 ft | 509 kts | 118° |
| 2026-05-06 23:36 | 26.70728 | 35.10126 | 35903 ft | 509 kts | 118° |
| 2026-05-06 23:36 | 26.68037 | 35.17464 | 35903 ft | 509 kts | 118° |
| 2026-05-06 23:37 | 26.65341 | 35.24803 | 35881 ft | 509 kts | 119° |
| 2026-05-06 23:37 | 26.62663 | 35.32078 | 35894 ft | 510 kts | 119° |
| 2026-05-06 23:38 | 26.59961 | 35.39406 | 35902 ft | 510 kts | 119° |
| 2026-05-06 23:38 | 26.57252 | 35.46740 | 35898 ft | 510 kts | 119° |
| 2026-05-06 23:39 | 26.54507 | 35.54044 | 35892 ft | 509 kts | 120° |
| 2026-05-06 23:39 | 26.51739 | 35.61276 | 35895 ft | 510 kts | 120° |
| 2026-05-06 23:40 | 26.48946 | 35.68558 | 35886 ft | 510 kts | 120° |
| 2026-05-06 23:40 | 26.46151 | 35.75845 | 35875 ft | 510 kts | 120° |
| 2026-05-06 23:41 | 26.43372 | 35.83088 | 35893 ft | 510 kts | 120° |
| 2026-05-06 23:41 | 26.40575 | 35.90367 | 35889 ft | 510 kts | 120° |
| 2026-05-06 23:42 | 26.37770 | 35.97651 | 35889 ft | 510 kts | 120° |
| 2026-05-06 23:42 | 26.34982 | 36.04879 | 35889 ft | 510 kts | 120° |
| 2026-05-06 23:43 | 26.32174 | 36.12146 | 35887 ft | 510 kts | 120° |
| 2026-05-06 23:43 | 26.29360 | 36.19413 | 35885 ft | 510 kts | 120° |
| 2026-05-06 23:44 | 26.26566 | 36.26619 | 35875 ft | 509 kts | 120° |
| 2026-05-06 23:44 | 26.23748 | 36.33873 | 35884 ft | 509 kts | 120° |
| 2026-05-06 23:45 | 26.20934 | 36.41103 | 35884 ft | 509 kts | 120° |
| 2026-05-06 23:45 | 26.18710 | 36.48649 | 35882 ft | 522 kts | 104° |
| 2026-05-06 23:45 | 26.18460 | 36.52708 | 35883 ft | 530 kts | 92° |
| 2026-05-06 23:46 | 26.18661 | 36.56815 | 35891 ft | 533 kts | 89° |
| 2026-05-06 23:46 | 26.19432 | 36.65018 | 35892 ft | 537 kts | 86° |
| 2026-05-06 23:47 | 26.20341 | 36.73284 | 35895 ft | 537 kts | 86° |
| 2026-05-06 23:47 | 26.21215 | 36.81572 | 35895 ft | 538 kts | 87° |
| 2026-05-06 23:48 | 26.22046 | 36.89865 | 35900 ft | 539 kts | 87° |
| 2026-05-06 23:48 | 26.22854 | 36.98119 | 35904 ft | 539 kts | 87° |
| 2026-05-06 23:49 | 26.23664 | 37.06429 | 35912 ft | 538 kts | 87° |
| 2026-05-06 23:49 | 26.24467 | 37.14714 | 35917 ft | 538 kts | 87° |
| 2026-05-06 23:50 | 26.25265 | 37.22991 | 35913 ft | 537 kts | 88° |
| 2026-05-06 23:50 | 26.26449 | 37.35356 | 35929 ft | 541 kts | 88° |
| 2026-05-06 23:51 | 26.27246 | 37.43790 | 35937 ft | 552 kts | 87° |
| 2026-05-06 23:51 | 26.28053 | 37.52335 | 35935 ft | 555 kts | 88° |
| 2026-05-06 23:52 | 26.28858 | 37.60892 | 35933 ft | 554 kts | 88° |
| 2026-05-06 23:52 | 26.29651 | 37.69386 | 35932 ft | 555 kts | 87° |
| 2026-05-06 23:53 | 26.30444 | 37.77970 | 35924 ft | 557 kts | 88° |
| 2026-05-06 23:53 | 26.31237 | 37.86559 | 35925 ft | 557 kts | 88° |
| 2026-05-06 23:54 | 26.32025 | 37.95146 | 35926 ft | 556 kts | 87° |
| 2026-05-06 23:54 | 26.32806 | 38.03725 | 35932 ft | 557 kts | 88° |
| 2026-05-06 23:55 | 26.33583 | 38.12322 | 35931 ft | 557 kts | 88° |
| 2026-05-06 23:55 | 26.34355 | 38.20913 | 35927 ft | 556 kts | 88° |
| 2026-05-06 23:56 | 26.35122 | 38.29531 | 35931 ft | 558 kts | 88° |
| 2026-05-06 23:56 | 26.35878 | 38.38090 | 35938 ft | 558 kts | 88° |
| 2026-05-06 23:57 | 26.36636 | 38.46726 | 35933 ft | 558 kts | 88° |
| 2026-05-06 23:57 | 26.37383 | 38.55306 | 35940 ft | 558 kts | 88° |
| 2026-05-06 23:58 | 26.38128 | 38.63907 | 35938 ft | 557 kts | 88° |
| 2026-05-06 23:58 | 26.38868 | 38.72521 | 35942 ft | 558 kts | 88° |
| 2026-05-06 23:59 | 26.39605 | 38.81160 | 35956 ft | 559 kts | 88° |
| 2026-05-06 23:59 | 26.40331 | 38.89744 | 35938 ft | 559 kts | 88° |
| 2026-05-07 00:00 | 26.41058 | 38.98392 | 35965 ft | 559 kts | 88° |
| 2026-05-07 00:00 | 26.41658 | 39.05577 | 35968 ft | 559 kts | 88° |
| 2026-05-07 00:01 | 26.42498 | 39.15694 | 35956 ft | 559 kts | 88° |
| 2026-05-07 00:01 | 26.43205 | 39.24290 | 35965 ft | 559 kts | 89° |
| 2026-05-07 00:02 | 26.43798 | 39.32954 | 35971 ft | 558 kts | 90° |
| 2026-05-07 00:02 | 26.44212 | 39.41542 | 35962 ft | 557 kts | 91° |
| 2026-05-07 00:03 | 26.44608 | 39.50182 | 35965 ft | 557 kts | 91° |
| 2026-05-07 00:03 | 26.45020 | 39.58830 | 35964 ft | 557 kts | 91° |
| 2026-05-07 00:04 | 26.45437 | 39.67423 | 35980 ft | 558 kts | 91° |
| 2026-05-07 00:04 | 26.45856 | 39.76072 | 35985 ft | 557 kts | 91° |
| 2026-05-07 00:05 | 26.46199 | 39.83259 | 35976 ft | 557 kts | 91° |
| 2026-05-07 00:05 | 26.46606 | 39.91915 | 35991 ft | 559 kts | 91° |
| 2026-05-07 00:06 | 26.47008 | 40.00579 | 35990 ft | 559 kts | 91° |
| 2026-05-07 00:06 | 26.47406 | 40.09248 | 35989 ft | 559 kts | 91° |
| 2026-05-07 00:07 | 26.47797 | 40.17875 | 35993 ft | 559 kts | 91° |
| 2026-05-07 00:07 | 26.48183 | 40.26537 | 35977 ft | 559 kts | 91° |
| 2026-05-07 00:08 | 26.48565 | 40.35202 | 35996 ft | 559 kts | 91° |
| 2026-05-07 00:08 | 26.48941 | 40.43868 | 35990 ft | 559 kts | 91° |
| 2026-05-07 00:09 | 26.49312 | 40.52542 | 35984 ft | 560 kts | 91° |
| 2026-05-07 00:09 | 26.49679 | 40.61252 | 35986 ft | 561 kts | 91° |
| 2026-05-07 00:10 | 26.50041 | 40.69956 | 35988 ft | 561 kts | 91° |
| 2026-05-07 00:10 | 26.50394 | 40.78596 | 35989 ft | 561 kts | 91° |
| 2026-05-07 00:11 | 26.50744 | 40.87304 | 35990 ft | 561 kts | 92° |
| 2026-05-07 00:11 | 26.51088 | 40.95967 | 35989 ft | 559 kts | 92° |
| 2026-05-07 00:12 | 26.51297 | 41.04641 | 35992 ft | 558 kts | 98° |
| 2026-05-07 00:12 | 26.50831 | 41.13279 | 35979 ft | 557 kts | 99° |
| 2026-05-07 00:13 | 26.50228 | 41.21940 | 35990 ft | 558 kts | 99° |
| 2026-05-07 00:13 | 26.49595 | 41.30563 | 35983 ft | 558 kts | 99° |
| 2026-05-07 00:14 | 26.48968 | 41.39181 | 35972 ft | 559 kts | 99° |
| 2026-05-07 00:14 | 26.48343 | 41.47823 | 35974 ft | 560 kts | 99° |
| 2026-05-07 00:15 | 26.47716 | 41.56455 | 35945 ft | 560 kts | 99° |
| 2026-05-07 00:15 | 26.47080 | 41.65141 | 35964 ft | 560 kts | 99° |
| 2026-05-07 00:16 | 26.46438 | 41.73827 | 35970 ft | 560 kts | 99° |
| 2026-05-07 00:16 | 26.45796 | 41.82452 | 35964 ft | 560 kts | 99° |
| 2026-05-07 00:17 | 26.45144 | 41.91123 | 35963 ft | 559 kts | 99° |
| 2026-05-07 00:17 | 26.44490 | 41.99749 | 35936 ft | 559 kts | 100° |
| 2026-05-07 00:18 | 26.43833 | 42.08365 | 35966 ft | 558 kts | 100° |
| 2026-05-07 00:18 | 26.43170 | 42.16978 | 35968 ft | 558 kts | 100° |
| 2026-05-07 00:19 | 26.42499 | 42.25620 | 35964 ft | 557 kts | 100° |
| 2026-05-07 00:19 | 26.41826 | 42.34232 | 35974 ft | 556 kts | 100° |
| 2026-05-07 00:20 | 26.41148 | 42.42821 | 35959 ft | 556 kts | 100° |
| 2026-05-07 00:20 | 26.40469 | 42.51377 | 35972 ft | 556 kts | 100° |
| 2026-05-07 00:21 | 26.39779 | 42.59995 | 35958 ft | 555 kts | 100° |
| 2026-05-07 00:21 | 26.39089 | 42.68550 | 35963 ft | 555 kts | 100° |
| 2026-05-07 00:22 | 26.38395 | 42.77092 | 35957 ft | 555 kts | 100° |
| 2026-05-07 00:22 | 26.37693 | 42.85665 | 35950 ft | 555 kts | 100° |
| 2026-05-07 00:23 | 26.36985 | 42.94260 | 35947 ft | 555 kts | 101° |
| 2026-05-07 00:23 | 26.36276 | 43.02804 | 35940 ft | 555 kts | 101° |
| 2026-05-07 00:24 | 26.35557 | 43.11395 | 35947 ft | 557 kts | 101° |
| 2026-05-07 00:24 | 26.34834 | 43.19964 | 35944 ft | 557 kts | 101° |
| 2026-05-07 00:25 | 26.34102 | 43.28581 | 35960 ft | 557 kts | 101° |
| 2026-05-07 00:25 | 26.33371 | 43.37141 | 35941 ft | 556 kts | 101° |
| 2026-05-07 00:26 | 26.32629 | 43.45757 | 35935 ft | 556 kts | 101° |
| 2026-05-07 00:26 | 26.31886 | 43.54320 | 35937 ft | 557 kts | 101° |
| 2026-05-07 00:27 | 26.31135 | 43.62910 | 35938 ft | 557 kts | 101° |
| 2026-05-07 00:27 | 26.30381 | 43.71486 | 35939 ft | 558 kts | 101° |
| 2026-05-07 00:28 | 26.28741 | 43.79804 | 35940 ft | 538 kts | 120° |
| 2026-05-07 00:28 | 26.25621 | 43.87319 | 35937 ft | 534 kts | 124° |
| 2026-05-07 00:29 | 26.22215 | 43.94690 | 35938 ft | 534 kts | 126° |
| 2026-05-07 00:30 | 26.15378 | 44.09333 | 35935 ft | 535 kts | 125° |
| 2026-05-07 00:30 | 26.11981 | 44.16679 | 35941 ft | 535 kts | 125° |
| 2026-05-07 00:31 | 26.08565 | 44.24071 | 35939 ft | 535 kts | 125° |
| 2026-05-07 00:31 | 26.05164 | 44.31415 | 35944 ft | 536 kts | 125° |
| 2026-05-07 00:32 | 26.01744 | 44.38784 | 35943 ft | 536 kts | 125° |
| 2026-05-07 00:32 | 25.98309 | 44.46174 | 35941 ft | 537 kts | 125° |
| 2026-05-07 00:33 | 25.95003 | 44.53638 | 35953 ft | 541 kts | 122° |
| 2026-05-07 00:33 | 25.91906 | 44.61225 | 35642 ft | 540 kts | 122° |
| 2026-05-07 00:34 | 25.90334 | 44.65068 | 35400 ft | 541 kts | 122° |
| 2026-05-07 00:34 | 25.88782 | 44.68850 | 35169 ft | 542 kts | 122° |
| 2026-05-07 00:34 | 25.87212 | 44.72668 | 34941 ft | 542 kts | 122° |
| 2026-05-07 00:34 | 25.85662 | 44.76433 | 34720 ft | 542 kts | 122° |
| 2026-05-07 00:35 | 25.84090 | 44.80247 | 34483 ft | 537 kts | 122° |
| 2026-05-07 00:35 | 25.82565 | 44.83953 | 34262 ft | 527 kts | 122° |
| 2026-05-07 00:35 | 25.81051 | 44.87628 | 34032 ft | 519 kts | 122° |
| 2026-05-07 00:35 | 25.79553 | 44.91248 | 33778 ft | 516 kts | 122° |
| 2026-05-07 00:36 | 25.78043 | 44.94886 | 33519 ft | 517 kts | 122° |
| 2026-05-07 00:36 | 25.76538 | 44.98509 | 33264 ft | 517 kts | 122° |
| 2026-05-07 00:36 | 25.75048 | 45.02098 | 32994 ft | 517 kts | 122° |
| 2026-05-07 00:36 | 25.73531 | 45.05750 | 32736 ft | 518 kts | 122° |
| 2026-05-07 00:37 | 25.72021 | 45.09383 | 32510 ft | 518 kts | 122° |
| 2026-05-07 00:37 | 25.70516 | 45.13004 | 32244 ft | 517 kts | 122° |
| 2026-05-07 00:37 | 25.69024 | 45.16589 | 31994 ft | 516 kts | 122° |
| 2026-05-07 00:37 | 25.67515 | 45.20212 | 31759 ft | 516 kts | 122° |
| 2026-05-07 00:38 | 25.66020 | 45.23798 | 31515 ft | 516 kts | 121° |
| 2026-05-07 00:38 | 25.64498 | 45.27447 | 31275 ft | 517 kts | 121° |
| 2026-05-07 00:38 | 25.63003 | 45.31027 | 31043 ft | 516 kts | 121° |
| 2026-05-07 00:38 | 25.61492 | 45.34644 | 30805 ft | 514 kts | 121° |
| 2026-05-07 00:39 | 25.59990 | 45.38238 | 30573 ft | 511 kts | 121° |
| 2026-05-07 00:39 | 25.58514 | 45.41764 | 30350 ft | 510 kts | 121° |
| 2026-05-07 00:39 | 25.57016 | 45.45339 | 30117 ft | 508 kts | 121° |
| 2026-05-07 00:39 | 25.55530 | 45.48885 | 29859 ft | 505 kts | 121° |
| 2026-05-07 00:40 | 25.54064 | 45.52380 | 29579 ft | 503 kts | 121° |
| 2026-05-07 00:40 | 25.52591 | 45.55889 | 29320 ft | 500 kts | 121° |
| 2026-05-07 00:40 | 25.51125 | 45.59374 | 29061 ft | 498 kts | 121° |
| 2026-05-07 00:40 | 25.49666 | 45.62842 | 28794 ft | 497 kts | 121° |
| 2026-05-07 00:41 | 25.48206 | 45.66311 | 28509 ft | 494 kts | 121° |
| 2026-05-07 00:41 | 25.46768 | 45.69724 | 28253 ft | 491 kts | 121° |
| 2026-05-07 00:41 | 25.45323 | 45.73153 | 27996 ft | 489 kts | 121° |
| 2026-05-07 00:41 | 25.43880 | 45.76571 | 27729 ft | 486 kts | 121° |
| 2026-05-07 00:42 | 25.42462 | 45.79928 | 27475 ft | 484 kts | 121° |
| 2026-05-07 00:42 | 25.41035 | 45.83306 | 27252 ft | 482 kts | 121° |
| 2026-05-07 00:42 | 25.39614 | 45.86663 | 26997 ft | 480 kts | 121° |
| 2026-05-07 00:42 | 25.38198 | 45.90009 | 26747 ft | 478 kts | 121° |
| 2026-05-07 00:43 | 25.36805 | 45.93297 | 26494 ft | 475 kts | 120° |
| 2026-05-07 00:43 | 25.35402 | 45.96609 | 26253 ft | 472 kts | 120° |
| 2026-05-07 00:43 | 25.34025 | 45.99853 | 26023 ft | 469 kts | 120° |
| 2026-05-07 00:43 | 25.32643 | 46.03108 | 25780 ft | 468 kts | 120° |
| 2026-05-07 00:44 | 25.31251 | 46.06383 | 25543 ft | 466 kts | 120° |
| 2026-05-07 00:44 | 25.29886 | 46.09591 | 25315 ft | 464 kts | 120° |
| 2026-05-07 00:44 | 25.28504 | 46.12841 | 25077 ft | 462 kts | 120° |
| 2026-05-07 00:44 | 25.27132 | 46.16062 | 24848 ft | 460 kts | 120° |
| 2026-05-07 00:45 | 25.25779 | 46.19237 | 24623 ft | 458 kts | 119° |
| 2026-05-07 00:45 | 25.24422 | 46.22417 | 24384 ft | 457 kts | 119° |
| 2026-05-07 00:45 | 25.23082 | 46.25558 | 24154 ft | 454 kts | 119° |
| 2026-05-07 00:45 | 25.21723 | 46.28740 | 23566 ft | 456 kts | 119° |
| 2026-05-07 00:46 | 25.20392 | 46.31853 | 23110 ft | 450 kts | 119° |
| 2026-05-07 00:46 | 25.19066 | 46.34957 | 22702 ft | 442 kts | 119° |
| 2026-05-07 00:46 | 25.17757 | 46.38015 | 22224 ft | 437 kts | 119° |
| 2026-05-07 00:46 | 25.16294 | 46.40945 | 21683 ft | 430 kts | 128° |
| 2026-05-07 00:47 | 25.14426 | 46.43404 | 21185 ft | 419 kts | 141° |
| 2026-05-07 00:47 | 25.12091 | 46.45298 | 20660 ft | 410 kts | 152° |
| 2026-05-07 00:47 | 25.09687 | 46.46869 | 20391 ft | 400 kts | 154° |
| 2026-05-07 00:47 | 25.07301 | 46.48374 | 20200 ft | 389 kts | 154° |
| 2026-05-07 00:48 | 25.04989 | 46.49831 | 20014 ft | 378 kts | 154° |
| 2026-05-07 00:48 | 25.02731 | 46.51257 | 19851 ft | 368 kts | 154° |
| 2026-05-07 00:48 | 25.00537 | 46.52647 | 19692 ft | 358 kts | 154° |
| 2026-05-07 00:48 | 24.98399 | 46.54003 | 19547 ft | 348 kts | 154° |
| 2026-05-07 00:49 | 24.96343 | 46.55307 | 19371 ft | 339 kts | 154° |
| 2026-05-07 00:49 | 24.94322 | 46.56588 | 19248 ft | 330 kts | 154° |
| 2026-05-07 00:49 | 24.92348 | 46.57838 | 19092 ft | 322 kts | 154° |
| 2026-05-07 00:49 | 24.90446 | 46.59041 | 18884 ft | 316 kts | 154° |
| 2026-05-07 00:50 | 24.88546 | 46.60242 | 18552 ft | 311 kts | 154° |
| 2026-05-07 00:50 | 24.86695 | 46.61411 | 18053 ft | 308 kts | 153° |
| 2026-05-07 00:50 | 24.84830 | 46.62588 | 17517 ft | 306 kts | 153° |
| 2026-05-07 00:50 | 24.82983 | 46.63753 | 16984 ft | 304 kts | 153° |
| 2026-05-07 00:51 | 24.81150 | 46.64908 | 16477 ft | 302 kts | 153° |
| 2026-05-07 00:51 | 24.79352 | 46.66041 | 15984 ft | 300 kts | 153° |
| 2026-05-07 00:51 | 24.77536 | 46.67184 | 15546 ft | 299 kts | 153° |
| 2026-05-07 00:51 | 24.75737 | 46.68317 | 15232 ft | 296 kts | 153° |
| 2026-05-07 00:52 | 24.74547 | 46.69068 | 14917 ft | 294 kts | 153° |
| 2026-05-07 00:52 | 24.72283 | 46.70495 | 14347 ft | 289 kts | 153° |
| 2026-05-07 00:52 | 24.70548 | 46.71589 | 13880 ft | 286 kts | 153° |
| 2026-05-07 00:52 | 24.69403 | 46.72310 | 13540 ft | 285 kts | 153° |
| 2026-05-07 00:53 | 24.67688 | 46.73390 | 13032 ft | 283 kts | 153° |
| 2026-05-07 00:53 | 24.65979 | 46.74467 | 12548 ft | 280 kts | 153° |
| 2026-05-07 00:53 | 24.64305 | 46.75519 | 12070 ft | 277 kts | 153° |
| 2026-05-07 00:53 | 24.62636 | 46.76564 | 11600 ft | 274 kts | 153° |
| 2026-05-07 00:54 | 24.60982 | 46.77599 | 11133 ft | 271 kts | 153° |
| 2026-05-07 00:54 | 24.59367 | 46.78610 | 10695 ft | 269 kts | 154° |
| 2026-05-07 00:54 | 24.57791 | 46.79712 | 10247 ft | 269 kts | 143° |
| 2026-05-07 00:54 | 24.56625 | 46.81314 | 10028 ft | 276 kts | 118° |
| 2026-05-07 00:55 | 24.56241 | 46.83383 | 9988 ft | 283 kts | 90° |
| 2026-05-07 00:55 | 24.56786 | 46.85479 | 9988 ft | 288 kts | 67° |
| 2026-05-07 00:55 | 24.57763 | 46.87395 | 9980 ft | 291 kts | 58° |
| 2026-05-07 00:55 | 24.59199 | 46.88970 | 9985 ft | 292 kts | 30° |
| 2026-05-07 00:56 | 24.61082 | 46.89567 | 9990 ft | 281 kts | 356° |
| 2026-05-07 00:56 | 24.62897 | 46.89089 | 9984 ft | 260 kts | 331° |
| 2026-05-07 00:56 | 24.64451 | 46.88183 | 9947 ft | 247 kts | 326° |
| 2026-05-07 00:56 | 24.65904 | 46.87247 | 9856 ft | 235 kts | 325° |
| 2026-05-07 00:57 | 24.67288 | 46.86348 | 9567 ft | 233 kts | 325° |
| 2026-05-07 00:57 | 24.68692 | 46.85444 | 9224 ft | 233 kts | 326° |
| 2026-05-07 00:57 | 24.70096 | 46.84547 | 8886 ft | 233 kts | 326° |
| 2026-05-07 00:57 | 24.71496 | 46.83658 | 8580 ft | 232 kts | 326° |
| 2026-05-07 00:58 | 24.72901 | 46.82770 | 8269 ft | 231 kts | 326° |
| 2026-05-07 00:58 | 24.74281 | 46.81898 | 7970 ft | 230 kts | 327° |
| 2026-05-07 00:58 | 24.75681 | 46.81015 | 7556 ft | 235 kts | 327° |
| 2026-05-07 00:58 | 24.77118 | 46.80106 | 7087 ft | 240 kts | 327° |
| 2026-05-07 00:59 | 24.80036 | 46.78264 | 6161 ft | 240 kts | 330° |
| 2026-05-07 00:59 | 24.81448 | 46.77375 | 5852 ft | 233 kts | 330° |
| 2026-05-07 00:59 | 24.82838 | 46.76499 | 5460 ft | 227 kts | 330° |
| 2026-05-07 01:00 | 24.84194 | 46.75645 | 4966 ft | 221 kts | 330° |
| 2026-05-07 01:00 | 24.85517 | 46.74811 | 4497 ft | 216 kts | 331° |
| 2026-05-07 01:00 | 24.86814 | 46.73992 | 4022 ft | 213 kts | 332° |
| 2026-05-07 01:00 | 24.88066 | 46.73200 | 3627 ft | 206 kts | 332° |
| 2026-05-07 01:01 | 24.89268 | 46.72440 | 3378 ft | 192 kts | 333° |
| 2026-05-07 01:01 | 24.90393 | 46.71728 | 3168 ft | 177 kts | 333° |
| 2026-05-07 01:01 | 24.91418 | 46.71080 | 2888 ft | 170 kts | 334° |
| 2026-05-07 01:01 | 24.92441 | 46.70428 | 2467 ft | 168 kts | 332° |
| 2026-05-07 01:02 | 24.93410 | 46.69813 | 2202 ft | 157 kts | 331° |
| 2026-05-07 01:02 | 24.94326 | 46.69236 | 2044 ft | 143 kts | 331° |
| 2026-05-07 01:02 | 24.95033 | 46.68797 | 2039 ft | 87 kts | 329° |
| 2026-05-07 01:02 | 24.95426 | 46.68547 | 2041 ft | 55 kts | 328° |
| 2026-05-07 01:03 | 24.95729 | 46.68369 | 2040 ft | 46 kts | 348° |
| 2026-05-07 01:03 | 24.95946 | 46.68360 | 2039 ft | 25 kts | 22° |
| 2026-05-07 01:03 | 24.96055 | 46.68490 | 2042 ft | 23 kts | 59° |
| 2026-05-07 01:03 | 24.96105 | 46.68582 | 2042 ft | 22 kts | 59° |
| 2026-05-07 01:04 | 24.96166 | 46.68701 | 2041 ft | 21 kts | 62° |
| 2026-05-07 01:04 | 24.96236 | 46.68840 | 2040 ft | 21 kts | 57° |
| 2026-05-07 01:04 | 24.96309 | 46.68976 | 2041 ft | 21 kts | 60° |
| 2026-05-07 01:04 | 24.96380 | 46.69113 | 2037 ft | 21 kts | 59° |
| 2026-05-07 01:05 | 24.96469 | 46.69279 | 2041 ft | 30 kts | 59° |
| 2026-05-07 01:05 | 24.96592 | 46.69514 | 2041 ft | 42 kts | 60° |
| 2026-05-07 01:05 | 24.96739 | 46.69789 | 2041 ft | 41 kts | 59° |
| 2026-05-07 01:05 | 24.96847 | 46.70013 | 2041 ft | 25 kts | 84° |
| 2026-05-07 01:06 | 24.96727 | 46.70149 | 2041 ft | 32 kts | 150° |
| 2026-05-07 01:06 | 24.96506 | 46.70287 | 2040 ft | 38 kts | 150° |
| 2026-05-07 01:06 | 24.96276 | 46.70432 | 2041 ft | 38 kts | 150° |
| 2026-05-07 01:06 | 24.96052 | 46.70575 | 2039 ft | 37 kts | 150° |
| 2026-05-07 01:07 | 24.95857 | 46.70695 | 2041 ft | 19 kts | 163° |
| 2026-05-07 01:07 | 24.95792 | 46.70687 | 2040 ft | 8 kts | 205° |
| 2026-05-07 01:07 | 24.95769 | 46.70673 | 2041 ft | 3 kts | 207° |
| 2026-05-07 01:07 | 24.95745 | 46.70660 | 2039 ft | 4 kts | 207° |
| 2026-05-07 01:08 | 24.95716 | 46.70642 | 2037 ft | 5 kts | 208° |
| 2026-05-07 01:08 | 24.95702 | 46.70634 | 2040 ft | 0 kts | 207° |